Decoded Metar for KPZQ (ROGERS CITY in MI, USA) (IATA:PZQ) | Meteo·Mobile Aviation Weather
aviador You're here:

KPZQ Decoded Metar

ROGERS CITY in MI, USA
Report Time2019-02-16 07:16:00
UTC Time2019-02-16 07:38:04
Flight Rules mvfr MVFR
Wind330° at 12 Gusting to 17 kt
W.Decomp.*RWY 27: 4.7 kt HW 11.0 kt RCW
W.Rank330° ranks 13
Current wind is above 330° avg. (8.8)
Visibility9999 m
Phenomena:N/A
Clouds:Overcast 020 Hf
Expected CloudBase > 1,200 ft AGL from Temp-Dew spread
Ceiling2,000 ft
Temp-6°C (ISA -20)
Dew Point-9°C (80% RH)
AAT-13.3°C
QNH1015 hPa
Density Alt-1,788 ft
Elevation669 ft
Report Wrong Elevation
Raw Report
KPZQ 160716Z AUTO 33012G17KT 10SM OVC020 M06/M09 A2997 RMK AO2
T10571089=

Extra information for KPZQ:More info

Metar Taf Metar & Taf Last 4 Metars F.Rules Stats Wind Profile Meteogram Temp Stats Airport Information Weather charts Add Link Nearby VenuesMetar ALERT Operation Metar Decoded Social comments

AIRNAV info for KPZQ